Ostatnio dodane

Tytuł Autor Odpowiedzi Last Postikona sortowania Odsłon łącznie Odsłon dzisiaj
Regulator temperatury+max 6675 Grzeniu 73 9 2014-10-29 21:11 10 189 4 728
Sterownik świateł do samochodu - jak podać sygnały na mikrokontroler? mareks6 22 2014-10-28 17:09 6 315 4 623
Atmega fusebit doctor Łukasz 4 2014-10-07 10:09 13 282 6 854
USBasp problem z programowaniem Eagle 8 2014-10-05 05:49 6 964 3 866
Bascom - Sterowanie wyjściami z impulsatora? Mirix 7 2014-10-01 15:49 7 039 5 075
RFM12B - łatwiejsze niż myślisz EDC 2014-09-15 00:56 8 432 5 948
Przerywacz kierunkowskazów APE 13A - nie działa poprawnie po naprawie Motorpal 2 2014-09-11 13:26 4 454 3 668
Cyfrowy Przedwzmacniacz mirley 102 2014-08-28 21:21 48 937 18 017
Sterownik C.O. z monitoringiem EDC 3 2014-08-27 16:35 5 197 3 915
AVR Odtwarzacz wav demsy1 2 2014-08-16 12:42 4 211 3 412
problem ze wzmacniaczem na Tda 1905 Misiek 6 2014-08-09 20:52 14 346 4 859
Timer+pomiar temperatury marekszy 14 2014-07-19 20:50 4 736 3 800
Przetwornik ADC maro 7 2014-07-16 10:11 4 767 3 690
Mirley.net Uruchomiona mirley 2014-07-16 08:05 5 164 3 898
Przerwanie operacji WAIT bascom barni 1 2014-07-10 14:08 4 716 3 763
Nowy soft przez USB/RS232 czyli BOOTLOADER EDC 13 2014-07-03 08:34 8 266 6 362
Zapis i odczyt do eeprom demsy1 6 2014-06-27 11:35 5 015 3 987
Regulator PWM DC 15A Chester 15 2014-06-25 18:00 8 426 6 192
AVT1460 Chester 2 2014-06-25 17:57 4 131 3 338
Bascom-PWM nanab 88 2014-06-24 05:21 43 673 14 218
Przerwania INT0 i INT1 jacek1987-1987 21 2014-06-22 22:04 7 212 5 419
Zwiększenie zasięgu działania czujnika na fototranzystorze i diodzie IR jacek1987-1987 17 2014-06-17 22:46 7 182 5 571
Big Endian w atmega32 wchpikus 2 2014-06-14 11:57 5 202 3 834
Modyfikacja kierownicy PC MSideWinder FFB (pomysły) Radzioo 5 2014-06-13 18:15 7 927 5 694
termometr_uniwersalny wersja na 2051 kaktus 4 2014-06-07 16:29 6 084 3 433